createdAt,value
2022-10-11T00:00:32.397Z,44
2022-10-11T00:03:03.027Z,49
2022-10-11T00:05:33.411Z,40
2022-10-11T00:08:05.162Z,38
2022-10-11T00:10:36.342Z,40
2022-10-11T00:13:07.540Z,41
2022-10-11T00:15:38.006Z,41
2022-10-11T00:18:08.848Z,37
2022-10-11T00:20:39.933Z,37
2022-10-11T00:23:11.074Z,45
2022-10-11T00:25:42.309Z,39
2022-10-11T00:28:12.734Z,39
2022-10-11T00:30:44.202Z,47
2022-10-11T00:33:15.514Z,40
2022-10-11T00:35:46.719Z,32
2022-10-11T00:38:17.848Z,36
2022-10-11T00:40:48.605Z,30
2022-10-11T00:43:19.742Z,32
2022-10-11T00:45:51.105Z,37
2022-10-11T00:48:22.203Z,36
2022-10-11T00:50:52.984Z,37
2022-10-11T00:53:26.275Z,40
2022-10-11T00:55:58.066Z,35
2022-10-11T00:58:28.976Z,37
2022-10-11T01:00:59.833Z,39
2022-10-11T01:03:30.409Z,36
2022-10-11T01:06:01.940Z,33
2022-10-11T01:08:32.310Z,35
2022-10-11T01:11:03.279Z,29
2022-10-11T01:13:36.371Z,38
2022-10-11T01:16:08.552Z,31
2022-10-11T01:18:41.769Z,29
2022-10-11T01:21:12.560Z,28
2022-10-11T01:23:44.647Z,27
2022-10-11T01:26:16.952Z,36
2022-10-11T01:28:48.281Z,28
2022-10-11T01:31:20.202Z,33
2022-10-11T01:33:51.226Z,33
2022-10-11T01:36:22.179Z,36
2022-10-11T01:38:53.357Z,40
2022-10-11T01:41:24.255Z,36
2022-10-11T01:43:55.503Z,36
2022-10-11T01:46:27.002Z,29
2022-10-11T01:49:01.815Z,28
2022-10-11T01:51:32.589Z,33
2022-10-11T01:54:06.466Z,32
2022-10-11T01:56:37.217Z,28
2022-10-11T01:59:10.183Z,31
2022-10-11T02:01:40.973Z,34
2022-10-11T02:04:13.633Z,28
2022-10-11T02:06:45.361Z,31
2022-10-11T02:09:16.118Z,31
2022-10-11T02:11:48.649Z,32
2022-10-11T02:14:20.218Z,29
2022-10-11T02:16:51.692Z,29
2022-10-11T02:19:23.056Z,32
2022-10-11T02:21:54.399Z,35
2022-10-11T02:24:26.107Z,26
2022-10-11T02:26:56.963Z,28
2022-10-11T02:29:29.576Z,31
2022-10-11T02:32:01.283Z,29
2022-10-11T02:34:33.533Z,28
2022-10-11T02:37:04.519Z,29
2022-10-11T02:39:36.483Z,39
2022-10-11T02:42:08.908Z,31
2022-10-11T02:44:40.780Z,32
2022-10-11T02:47:12.100Z,37
2022-10-11T02:49:41.691Z,31
2022-10-11T02:52:12.978Z,28
2022-10-11T02:54:44.364Z,28
2022-10-11T02:57:15.604Z,31
2022-10-11T02:59:47.269Z,34
2022-10-11T03:02:17.041Z,32
2022-10-11T03:04:48.695Z,29
2022-10-11T03:07:20.009Z,33
2022-10-11T03:09:51.565Z,37
2022-10-11T03:12:22.143Z,28
2022-10-11T03:14:53.148Z,28
2022-10-11T03:17:38.450Z,34
2022-10-11T03:19:57.331Z,33
2022-10-11T03:22:28.798Z,40
2022-10-11T03:25:03.900Z,36
2022-10-11T03:27:31.844Z,30
2022-10-11T03:30:03.063Z,34
2022-10-11T03:32:34.056Z,32
2022-10-11T03:35:05.128Z,33
2022-10-11T03:37:36.422Z,35
2022-10-11T03:40:07.569Z,32
2022-10-11T03:42:39.540Z,33
2022-10-11T03:45:11.925Z,25
2022-10-11T03:47:42.517Z,32
2022-10-11T03:50:13.704Z,32
2022-10-11T03:52:44.514Z,33
2022-10-11T03:55:15.418Z,40
2022-10-11T03:57:46.377Z,35
2022-10-11T04:00:17.386Z,33
2022-10-11T04:02:48.993Z,32
2022-10-11T04:05:19.804Z,33
2022-10-11T04:07:49.181Z,36
2022-10-11T04:10:21.065Z,34
2022-10-11T04:12:52.477Z,31
2022-10-11T04:15:23.600Z,32
2022-10-11T04:17:55.716Z,36
2022-10-11T04:20:25.373Z,29
2022-10-11T04:22:56.393Z,40
2022-10-11T04:25:28.144Z,33
2022-10-11T04:27:59.954Z,31
2022-10-11T04:30:30.926Z,36
2022-10-11T04:33:02.105Z,35
2022-10-11T04:35:33.120Z,29
2022-10-11T04:38:04.196Z,32
2022-10-11T04:40:39.129Z,30
2022-10-11T04:43:14.429Z,29
2022-10-11T04:45:45.395Z,39
2022-10-11T04:48:17.571Z,37
2022-10-11T04:50:49.177Z,40
2022-10-11T04:53:19.987Z,38
2022-10-11T04:55:51.158Z,29
2022-10-11T04:58:22.311Z,36
2022-10-11T05:00:53.703Z,33
2022-10-11T05:03:26.404Z,34
2022-10-11T05:05:57.158Z,37
2022-10-11T05:08:28.385Z,32
2022-10-11T05:11:02.981Z,35
2022-10-11T05:13:34.500Z,40
2022-10-11T05:16:09.712Z,42
2022-10-11T05:18:36.255Z,35
2022-10-11T05:21:07.275Z,39
2022-10-11T05:23:36.867Z,36
2022-10-11T05:26:09.038Z,36
2022-10-11T05:28:42.812Z,33
2022-10-11T05:31:13.660Z,36
2022-10-11T05:33:44.360Z,33
2022-10-11T05:36:15.783Z,36
2022-10-11T05:38:47.051Z,31
2022-10-11T05:41:19.365Z,28
2022-10-11T05:43:50.483Z,35
2022-10-11T05:46:21.178Z,32
2022-10-11T05:48:57.132Z,33
2022-10-11T05:51:28.300Z,35
2022-10-11T05:53:59.319Z,36
2022-10-11T05:56:30.569Z,41
2022-10-11T05:59:02.612Z,34
2022-10-11T06:01:32.792Z,33
2022-10-11T06:04:09.229Z,34
2022-10-11T06:06:40.191Z,36
2022-10-11T06:09:11.124Z,36
2022-10-11T06:11:42.189Z,35
2022-10-11T06:14:12.531Z,39
2022-10-11T06:16:43.654Z,36
2022-10-11T06:19:15.266Z,39
2022-10-11T06:21:46.074Z,42
2022-10-11T06:24:15.202Z,40
2022-10-11T06:26:46.777Z,40
2022-10-11T06:29:18.499Z,41
2022-10-11T06:31:51.143Z,47
2022-10-11T06:34:20.404Z,48
2022-10-11T06:36:51.235Z,35
2022-10-11T06:39:22.558Z,45
2022-10-11T06:41:55.023Z,40
2022-10-11T06:44:26.255Z,45
2022-10-11T06:46:57.271Z,43
2022-10-11T06:49:26.407Z,40
2022-10-11T06:51:56.987Z,48
2022-10-11T06:54:28.100Z,41
2022-10-11T06:56:59.254Z,43
2022-10-11T06:59:29.736Z,36
2022-10-11T07:02:02.307Z,43
2022-10-11T07:04:33.025Z,44
2022-10-11T07:07:03.530Z,40
2022-10-11T07:09:34.339Z,43
2022-10-11T07:12:06.163Z,41
2022-10-11T07:14:36.755Z,44
2022-10-11T07:17:06.427Z,47
2022-10-11T07:19:37.506Z,45
2022-10-11T07:22:08.953Z,49
2022-10-11T07:24:39.235Z,37
2022-10-11T07:27:10.246Z,36
2022-10-11T07:29:41.124Z,54
2022-10-11T07:32:11.941Z,43
2022-10-11T07:34:42.964Z,48
2022-10-11T07:37:13.730Z,44
2022-10-11T07:39:44.322Z,48
2022-10-11T07:42:16.538Z,41
2022-10-11T07:44:49.111Z,48
2022-10-11T07:47:19.686Z,45
2022-10-11T07:49:50.166Z,48
2022-10-11T07:52:21.511Z,44
2022-10-11T07:54:51.972Z,49
2022-10-11T07:57:22.890Z,48
2022-10-11T07:59:53.590Z,53
2022-10-11T08:02:24.771Z,52
2022-10-11T08:04:55.608Z,52
2022-10-11T08:07:32.576Z,49
2022-10-11T08:10:02.512Z,52
2022-10-11T08:12:33.040Z,41
2022-10-11T08:15:03.462Z,48
2022-10-11T08:17:35.223Z,46
2022-10-11T08:20:06.208Z,44
2022-10-11T08:22:37.756Z,39
2022-10-11T08:25:07.631Z,47
2022-10-11T08:27:37.076Z,42
2022-10-11T08:30:10.331Z,41
2022-10-11T08:32:41.000Z,45
2022-10-11T08:35:11.614Z,48
2022-10-11T08:37:42.408Z,44
2022-10-11T08:40:12.609Z,50
2022-10-11T08:42:43.549Z,42
2022-10-11T08:45:14.734Z,44
2022-10-11T08:47:45.858Z,51
2022-10-11T08:50:16.798Z,48
2022-10-11T08:52:49.369Z,51
2022-10-11T08:55:19.789Z,48
2022-10-11T08:57:51.352Z,49
2022-10-11T09:00:23.045Z,52
2022-10-11T09:03:07.877Z,53
2022-10-11T09:05:24.309Z,59
2022-10-11T09:07:56.550Z,56
2022-10-11T09:10:28.481Z,48
2022-10-11T09:12:58.220Z,64
2022-10-11T09:15:28.937Z,62
2022-10-11T09:17:59.207Z,64
2022-10-11T09:20:30.888Z,51
2022-10-11T09:23:02.071Z,51
2022-10-11T09:25:34.383Z,51
2022-10-11T09:28:04.014Z,48
2022-10-11T09:30:34.065Z,56
2022-10-11T09:33:04.464Z,53
2022-10-11T09:35:34.958Z,56
2022-10-11T09:38:07.662Z,48
2022-10-11T09:40:38.154Z,58
2022-10-11T09:43:10.267Z,56
2022-10-11T09:45:44.593Z,60
2022-10-11T09:48:16.044Z,64
2022-10-11T09:50:47.271Z,61
2022-10-11T09:53:18.173Z,60
2022-10-11T09:55:49.060Z,57
2022-10-11T09:58:19.572Z,58
2022-10-11T10:00:50.344Z,53
2022-10-11T10:03:29.197Z,60
2022-10-11T10:06:01.309Z,64
2022-10-11T10:08:32.045Z,60
2022-10-11T10:11:02.472Z,53
2022-10-11T10:13:33.257Z,60
2022-10-11T10:16:05.141Z,57
2022-10-11T10:18:37.405Z,67
2022-10-11T10:21:08.653Z,65
2022-10-11T10:23:38.744Z,70
2022-10-11T10:26:09.251Z,72
2022-10-11T10:28:40.009Z,65
2022-10-11T10:31:10.949Z,71
2022-10-11T10:33:41.460Z,77
2022-10-11T10:36:12.421Z,68
2022-10-11T10:38:43.410Z,79
2022-10-11T10:41:13.929Z,74
2022-10-11T10:43:44.459Z,76
2022-10-11T10:46:15.018Z,76
2022-10-11T10:49:23.508Z,72
2022-10-11T10:51:17.086Z,78
2022-10-11T10:53:47.303Z,74
2022-10-11T10:56:26.908Z,76
2022-10-11T10:58:57.030Z,72
2022-10-11T11:01:25.982Z,80
2022-10-11T11:03:56.853Z,75
2022-10-11T11:06:32.838Z,73
2022-10-11T11:09:02.361Z,76
2022-10-11T11:11:32.429Z,83
2022-10-11T11:14:03.193Z,86
2022-10-11T11:16:36.326Z,87
2022-10-11T11:19:07.313Z,94
2022-10-11T11:21:41.451Z,82
2022-10-11T11:24:09.317Z,89
2022-10-11T11:26:44.116Z,82
2022-10-11T11:29:13.061Z,87
2022-10-11T11:31:44.982Z,81
2022-10-11T11:34:15.493Z,83
2022-10-11T11:36:46.465Z,84
2022-10-11T11:39:18.579Z,83
2022-10-11T11:41:49.251Z,83
2022-10-11T11:44:25.102Z,79
2022-10-11T11:46:54.375Z,86
2022-10-11T11:49:29.193Z,77
2022-10-11T11:52:00.571Z,74
2022-10-11T11:54:32.148Z,83
2022-10-11T11:57:03.052Z,87
2022-10-11T11:59:34.986Z,74
2022-10-11T12:02:06.005Z,80
2022-10-11T12:04:36.905Z,73
2022-10-11T12:07:22.641Z,72
2022-10-11T12:09:38.605Z,80
2022-10-11T12:12:09.554Z,86
2022-10-11T12:14:40.102Z,83
2022-10-11T12:17:10.952Z,83
2022-10-11T12:19:41.786Z,85
2022-10-11T12:22:13.193Z,91
2022-10-11T12:24:44.097Z,79
2022-10-11T12:27:14.687Z,80
2022-10-11T12:29:45.590Z,85
2022-10-11T12:32:16.446Z,87
2022-10-11T12:34:47.171Z,86
2022-10-11T12:37:17.481Z,89
2022-10-11T12:39:46.533Z,85
2022-10-11T12:42:17.743Z,87
2022-10-11T12:44:49.358Z,84
2022-10-11T12:47:20.075Z,88
2022-10-11T12:49:51.418Z,78
2022-10-11T12:52:22.422Z,86
2022-10-11T12:54:53.991Z,82
2022-10-11T12:57:26.344Z,86
2022-10-11T12:59:58.228Z,85
2022-10-11T13:02:30.512Z,85
2022-10-11T13:05:02.847Z,84
2022-10-11T13:07:33.619Z,93
2022-10-11T13:10:04.869Z,95
2022-10-11T13:12:35.950Z,92
2022-10-11T13:15:07.555Z,95
2022-10-11T13:17:38.902Z,87
2022-10-11T13:20:12.006Z,93
2022-10-11T13:22:44.117Z,96
2022-10-11T13:25:15.668Z,85
2022-10-11T13:27:46.987Z,83
2022-10-11T13:30:17.907Z,84
2022-10-11T13:32:48.935Z,86
2022-10-11T13:35:22.314Z,82
2022-10-11T13:37:51.869Z,90
2022-10-11T13:40:23.102Z,81
2022-10-11T13:42:54.387Z,82
2022-10-11T13:45:25.545Z,76
2022-10-11T13:47:56.864Z,89
2022-10-11T13:50:28.540Z,85
2022-10-11T13:53:00.828Z,82
2022-10-11T13:55:33.935Z,81
2022-10-11T13:58:05.387Z,93
2022-10-11T14:00:40.583Z,80
2022-10-11T14:03:12.296Z,86
2022-10-11T14:05:43.629Z,84
2022-10-11T14:08:14.629Z,90
2022-10-11T14:10:47.291Z,85
2022-10-11T14:13:19.232Z,77
2022-10-11T14:15:51.289Z,86
2022-10-11T14:18:22.479Z,88
2022-10-11T14:20:54.706Z,84
2022-10-11T14:23:26.413Z,80
2022-10-11T14:25:58.058Z,87
2022-10-11T14:28:29.358Z,90
2022-10-11T14:31:00.895Z,84
2022-10-11T14:33:33.507Z,84
2022-10-11T14:36:05.270Z,94
2022-10-11T14:38:37.190Z,83
2022-10-11T14:41:08.242Z,87
2022-10-11T14:43:39.364Z,84
2022-10-11T14:46:10.413Z,88
2022-10-11T14:48:54.762Z,85
2022-10-11T14:51:15.118Z,92
2022-10-11T14:53:46.387Z,88
2022-10-11T14:56:21.216Z,90
2022-10-11T14:58:49.052Z,87
2022-10-11T15:01:20.205Z,81
2022-10-11T15:03:53.148Z,89
2022-10-11T15:06:24.718Z,87
2022-10-11T15:08:56.442Z,86
2022-10-11T15:11:29.063Z,88
2022-10-11T15:14:00.523Z,87
2022-10-11T15:16:31.330Z,97
2022-10-11T15:19:05.597Z,87
2022-10-11T15:21:36.923Z,100
2022-10-11T15:24:08.271Z,87
2022-10-11T15:26:39.422Z,92
2022-10-11T15:29:10.814Z,91
2022-10-11T15:31:43.511Z,89
2022-10-11T15:34:14.684Z,94
2022-10-11T15:36:45.792Z,97
2022-10-11T15:39:17.487Z,91
2022-10-11T15:41:49.034Z,91
2022-10-11T15:44:26.544Z,99
2022-10-11T15:46:59.109Z,102
2022-10-11T15:49:30.644Z,100
2022-10-11T15:52:01.556Z,100
2022-10-11T15:54:34.466Z,88
2022-10-11T15:57:07.220Z,97
2022-10-11T15:59:38.745Z,103
2022-10-11T16:02:11.655Z,105
2022-10-11T16:04:43.403Z,97
2022-10-11T16:07:15.481Z,102
2022-10-11T16:09:46.663Z,107
2022-10-11T16:12:26.987Z,99
2022-10-11T16:14:58.484Z,117
2022-10-11T16:17:33.073Z,95
2022-10-11T16:20:04.922Z,105
2022-10-11T16:22:37.011Z,107
2022-10-11T16:25:07.990Z,103
2022-10-11T16:27:38.647Z,105
2022-10-11T16:30:11.090Z,112
2022-10-11T16:32:42.229Z,102
2022-10-11T16:35:12.469Z,104
2022-10-11T16:37:43.811Z,119
2022-10-11T16:40:15.004Z,106
2022-10-11T16:42:46.969Z,115
2022-10-11T16:45:18.649Z,102
2022-10-11T16:47:51.491Z,109
2022-10-11T16:50:23.542Z,105
2022-10-11T16:52:53.909Z,117
2022-10-11T16:55:29.100Z,111
2022-10-11T16:58:02.088Z,114
2022-10-11T17:00:31.908Z,107
2022-10-11T17:03:02.886Z,105
2022-10-11T17:05:36.248Z,104
2022-10-11T17:08:09.731Z,103
2022-10-11T17:10:40.945Z,111
2022-10-11T17:13:10.619Z,106
2022-10-11T17:15:41.709Z,113
2022-10-11T17:18:17.618Z,123
2022-10-11T17:20:47.596Z,110
2022-10-11T17:23:18.926Z,112
2022-10-11T17:25:49.983Z,119
2022-10-11T17:28:22.371Z,116
2022-10-11T17:30:53.440Z,116
2022-10-11T17:33:23.871Z,127
2022-10-11T17:35:56.104Z,114
2022-10-11T17:38:27.520Z,132
2022-10-11T17:40:59.665Z,133
2022-10-11T17:43:31.060Z,124
2022-10-11T17:46:05.700Z,134
2022-10-11T17:48:37.106Z,123
2022-10-11T17:51:08.379Z,136
2022-10-11T17:53:44.621Z,139
2022-10-11T17:56:20.971Z,136
2022-10-11T17:58:51.303Z,141
2022-10-11T18:01:23.009Z,148
2022-10-11T18:03:55.265Z,137
2022-10-11T18:06:26.944Z,141
2022-10-11T18:08:58.496Z,134
2022-10-11T18:11:29.623Z,143
2022-10-11T18:13:59.004Z,140
2022-10-11T18:16:30.252Z,137
2022-10-11T18:19:01.741Z,128
2022-10-11T18:21:35.235Z,133
2022-10-11T18:24:06.970Z,141
2022-10-11T18:26:39.930Z,135
2022-10-11T18:29:11.350Z,126
2022-10-11T18:31:43.862Z,124
2022-10-11T18:34:15.014Z,117
2022-10-11T18:36:46.212Z,126
2022-10-11T18:39:17.698Z,141
2022-10-11T18:41:53.942Z,128
2022-10-11T18:44:25.108Z,127
2022-10-11T18:46:58.087Z,129
2022-10-11T18:49:30.483Z,124
2022-10-11T18:52:02.612Z,131
2022-10-11T18:54:33.776Z,120
2022-10-11T18:57:04.986Z,134
2022-10-11T18:59:35.205Z,145
2022-10-11T19:02:06.573Z,140
2022-10-11T19:04:40.012Z,141
2022-10-11T19:07:11.491Z,137
2022-10-11T19:09:42.506Z,143
2022-10-11T19:12:13.749Z,136
2022-10-11T19:14:45.032Z,137
2022-10-11T19:17:16.240Z,127
2022-10-11T19:19:48.192Z,136
2022-10-11T19:22:19.466Z,132
2022-10-11T19:24:50.972Z,134
2022-10-11T19:27:25.703Z,142
2022-10-11T19:29:55.325Z,133
2022-10-11T19:32:26.262Z,149
2022-10-11T19:35:02.995Z,149
2022-10-11T19:37:38.470Z,144
2022-10-11T19:40:09.949Z,143
2022-10-11T19:42:41.299Z,136
2022-10-11T19:45:13.897Z,152
2022-10-11T19:47:45.339Z,141
2022-10-11T19:50:16.939Z,144
2022-10-11T19:52:48.420Z,136
2022-10-11T19:55:19.368Z,135
2022-10-11T19:57:51.489Z,137
2022-10-11T20:00:24.080Z,129
2022-10-11T20:02:59.186Z,139
2022-10-11T20:05:30.859Z,137
2022-10-11T20:08:02.998Z,145
2022-10-11T20:10:39.934Z,144
2022-10-11T20:13:12.466Z,123
2022-10-11T20:15:43.818Z,141
2022-10-11T20:18:17.278Z,141
2022-10-11T20:20:48.808Z,148
2022-10-11T20:23:21.463Z,160
2022-10-11T20:25:50.523Z,161
2022-10-11T20:28:26.398Z,148
2022-10-11T20:30:57.600Z,156
2022-10-11T20:33:29.564Z,154
2022-10-11T20:36:00.603Z,147
2022-10-11T20:38:32.893Z,154
2022-10-11T20:41:04.399Z,135
2022-10-11T20:43:36.280Z,139
2022-10-11T20:46:07.981Z,176
2022-10-11T20:48:39.640Z,146
2022-10-11T20:51:11.570Z,193
2022-10-11T20:53:43.745Z,169
2022-10-11T20:56:18.138Z,186
2022-10-11T20:58:49.683Z,156
2022-10-11T21:01:21.917Z,150
2022-10-11T21:03:52.971Z,143
2022-10-11T21:06:24.842Z,149
2022-10-11T21:08:57.261Z,156
2022-10-11T21:11:28.882Z,150
2022-10-11T21:14:00.149Z,141
2022-10-11T21:16:31.894Z,123
2022-10-11T21:19:02.872Z,150
2022-10-11T21:21:34.099Z,146
2022-10-11T21:24:05.433Z,137
2022-10-11T21:26:37.005Z,138
2022-10-11T21:29:08.715Z,150
2022-10-11T21:31:41.108Z,148
2022-10-11T21:34:14.400Z,142
2022-10-11T21:36:48.796Z,136
2022-10-11T21:39:22.630Z,137
2022-10-11T21:41:55.293Z,139
2022-10-11T21:44:26.828Z,131
2022-10-11T21:47:07.316Z,130
2022-10-11T21:49:29.372Z,127
2022-10-11T21:52:01.052Z,125
2022-10-11T21:54:32.597Z,136
2022-10-11T21:57:04.545Z,117
2022-10-11T21:59:36.609Z,124
2022-10-11T22:02:07.805Z,132
2022-10-11T22:04:39.664Z,126
2022-10-11T22:07:10.842Z,126
2022-10-11T22:09:43.582Z,136
2022-10-11T22:12:17.326Z,124
2022-10-11T22:14:46.482Z,127
2022-10-11T22:17:17.696Z,129
2022-10-11T22:19:51.568Z,129
2022-10-11T22:22:23.193Z,119
2022-10-11T22:24:52.426Z,116
2022-10-11T22:27:22.962Z,119
2022-10-11T22:29:53.455Z,111
2022-10-11T22:32:24.184Z,128
2022-10-11T22:34:54.953Z,111
2022-10-11T22:37:25.348Z,104
2022-10-11T22:39:56.097Z,119
2022-10-11T22:42:27.550Z,132
2022-10-11T22:44:57.361Z,117
2022-10-11T22:47:28.488Z,117
2022-10-11T22:49:58.903Z,119
2022-10-11T22:52:29.966Z,128
2022-10-11T22:55:01.131Z,121
2022-10-11T22:57:33.988Z,120
2022-10-11T23:00:04.136Z,129
2022-10-11T23:02:34.977Z,117
2022-10-11T23:05:07.798Z,131
2022-10-11T23:07:40.685Z,132
2022-10-11T23:10:11.708Z,140
2022-10-11T23:12:43.112Z,127
2022-10-11T23:15:14.706Z,112
2022-10-11T23:17:46.247Z,123
2022-10-11T23:20:17.897Z,124
2022-10-11T23:22:48.853Z,126
2022-10-11T23:25:19.628Z,116
2022-10-11T23:27:51.302Z,116
2022-10-11T23:30:22.564Z,114
2022-10-11T23:32:53.380Z,127
2022-10-11T23:35:24.104Z,107
2022-10-11T23:37:55.154Z,127
2022-10-11T23:40:26.350Z,127
2022-10-11T23:42:57.247Z,112
2022-10-11T23:45:26.904Z,124
2022-10-11T23:47:58.387Z,113
2022-10-11T23:50:30.610Z,124
2022-10-11T23:53:01.857Z,115
2022-10-11T23:55:33.247Z,116
2022-10-11T23:58:04.190Z,117
